sensor_id;sensor_type;location;lat;lon;timestamp;P1;durP1;ratioP1;P2;durP2;ratioP2
81834;SDS011;71272;52.166;4.498;2023-08-24T00:00:14;9.77;;;4.80;;
81834;SDS011;71272;52.166;4.498;2023-08-24T00:02:43;11.38;;;5.95;;
81834;SDS011;71272;52.166;4.498;2023-08-24T00:05:13;10.35;;;5.35;;
81834;SDS011;71272;52.166;4.498;2023-08-24T00:07:38;10.05;;;4.90;;
81834;SDS011;71272;52.166;4.498;2023-08-24T00:10:04;8.88;;;5.50;;
81834;SDS011;71272;52.166;4.498;2023-08-24T00:12:32;9.00;;;5.15;;
81834;SDS011;71272;52.166;4.498;2023-08-24T00:14:58;11.30;;;5.88;;
81834;SDS011;71272;52.166;4.498;2023-08-24T00:17:24;21.52;;;5.57;;
81834;SDS011;71272;52.166;4.498;2023-08-24T00:19:49;10.93;;;5.05;;
81834;SDS011;71272;52.166;4.498;2023-08-24T00:22:15;13.48;;;5.20;;
81834;SDS011;71272;52.166;4.498;2023-08-24T00:24:40;10.43;;;5.80;;
81834;SDS011;71272;52.166;4.498;2023-08-24T00:27:06;9.27;;;5.25;;
81834;SDS011;71272;52.166;4.498;2023-08-24T00:29:31;12.45;;;5.82;;
81834;SDS011;71272;52.166;4.498;2023-08-24T00:31:57;10.73;;;5.28;;
81834;SDS011;71272;52.166;4.498;2023-08-24T00:34:22;10.73;;;5.85;;
81834;SDS011;71272;52.166;4.498;2023-08-24T00:36:48;10.50;;;5.30;;
81834;SDS011;71272;52.166;4.498;2023-08-24T00:39:14;11.50;;;5.35;;
81834;SDS011;71272;52.166;4.498;2023-08-24T00:41:41;10.23;;;6.00;;
81834;SDS011;71272;52.166;4.498;2023-08-24T00:44:06;9.52;;;5.35;;
81834;SDS011;71272;52.166;4.498;2023-08-24T00:46:32;12.60;;;5.18;;
81834;SDS011;71272;52.166;4.498;2023-08-24T00:49:00;14.68;;;5.78;;
81834;SDS011;71272;52.166;4.498;2023-08-24T00:51:28;10.20;;;5.60;;
81834;SDS011;71272;52.166;4.498;2023-08-24T00:53:57;8.98;;;5.65;;
81834;SDS011;71272;52.166;4.498;2023-08-24T00:59:45;9.52;;;5.47;;
81834;SDS011;71272;52.166;4.498;2023-08-24T01:02:11;11.35;;;5.90;;
81834;SDS011;71272;52.166;4.498;2023-08-24T01:04:43;14.35;;;6.40;;
81834;SDS011;71272;52.166;4.498;2023-08-24T01:07:09;8.23;;;5.78;;
81834;SDS011;71272;52.166;4.498;2023-08-24T01:09:35;9.88;;;5.95;;
81834;SDS011;71272;52.166;4.498;2023-08-24T01:18:04;12.57;;;6.07;;
81834;SDS011;71272;52.166;4.498;2023-08-24T01:20:33;15.00;;;5.95;;
81834;SDS011;71272;52.166;4.498;2023-08-24T01:25:42;8.40;;;5.93;;
81834;SDS011;71272;52.166;4.498;2023-08-24T01:28:16;10.32;;;5.90;;
81834;SDS011;71272;52.166;4.498;2023-08-24T01:30:43;9.85;;;6.32;;
81834;SDS011;71272;52.166;4.498;2023-08-24T01:33:09;13.35;;;7.20;;
81834;SDS011;71272;52.166;4.498;2023-08-24T01:35:37;12.55;;;7.22;;
81834;SDS011;71272;52.166;4.498;2023-08-24T01:38:02;10.85;;;7.03;;
81834;SDS011;71272;52.166;4.498;2023-08-24T01:40:33;14.10;;;7.40;;
81834;SDS011;71272;52.166;4.498;2023-08-24T01:43:07;15.20;;;7.07;;
81834;SDS011;71272;52.166;4.498;2023-08-24T01:45:34;13.38;;;8.30;;
81834;SDS011;71272;52.166;4.498;2023-08-24T01:48:00;15.70;;;7.45;;
81834;SDS011;71272;52.166;4.498;2023-08-24T01:50:28;11.15;;;7.03;;
81834;SDS011;71272;52.166;4.498;2023-08-24T01:52:55;15.75;;;7.53;;
81834;SDS011;71272;52.166;4.498;2023-08-24T01:55:20;11.75;;;6.65;;
81834;SDS011;71272;52.166;4.498;2023-08-24T01:57:46;10.70;;;6.82;;
81834;SDS011;71272;52.166;4.498;2023-08-24T02:00:11;14.10;;;7.35;;
81834;SDS011;71272;52.166;4.498;2023-08-24T02:02:37;11.35;;;7.22;;
81834;SDS011;71272;52.166;4.498;2023-08-24T02:05:04;11.93;;;7.35;;
81834;SDS011;71272;52.166;4.498;2023-08-24T02:07:30;13.38;;;8.90;;
81834;SDS011;71272;52.166;4.498;2023-08-24T02:09:56;15.10;;;8.32;;
81834;SDS011;71272;52.166;4.498;2023-08-24T02:12:21;18.05;;;8.88;;
81834;SDS011;71272;52.166;4.498;2023-08-24T02:14:47;14.77;;;8.55;;
81834;SDS011;71272;52.166;4.498;2023-08-24T02:17:12;15.82;;;8.07;;
81834;SDS011;71272;52.166;4.498;2023-08-24T02:19:39;14.02;;;8.45;;
81834;SDS011;71272;52.166;4.498;2023-08-24T02:22:06;15.75;;;8.55;;
81834;SDS011;71272;52.166;4.498;2023-08-24T02:24:31;17.05;;;8.68;;
81834;SDS011;71272;52.166;4.498;2023-08-24T02:26:57;15.73;;;7.80;;
81834;SDS011;71272;52.166;4.498;2023-08-24T02:29:22;13.10;;;7.88;;
81834;SDS011;71272;52.166;4.498;2023-08-24T02:31:49;12.98;;;7.43;;
81834;SDS011;71272;52.166;4.498;2023-08-24T02:34:15;14.30;;;8.23;;
81834;SDS011;71272;52.166;4.498;2023-08-24T02:36:41;12.15;;;7.65;;
81834;SDS011;71272;52.166;4.498;2023-08-24T02:39:07;13.68;;;8.10;;
81834;SDS011;71272;52.166;4.498;2023-08-24T02:41:33;14.27;;;8.18;;
81834;SDS011;71272;52.166;4.498;2023-08-24T02:43:59;13.88;;;8.55;;
81834;SDS011;71272;52.166;4.498;2023-08-24T02:46:25;11.75;;;7.68;;
81834;SDS011;71272;52.166;4.498;2023-08-24T02:48:51;17.38;;;8.98;;
81834;SDS011;71272;52.166;4.498;2023-08-24T02:51:17;15.20;;;9.32;;
81834;SDS011;71272;52.166;4.498;2023-08-24T02:53:48;14.98;;;8.48;;
81834;SDS011;71272;52.166;4.498;2023-08-24T02:56:14;15.55;;;9.13;;
81834;SDS011;71272;52.166;4.498;2023-08-24T02:58:40;16.13;;;9.75;;
81834;SDS011;71272;52.166;4.498;2023-08-24T03:01:05;16.13;;;8.68;;
81834;SDS011;71272;52.166;4.498;2023-08-24T03:03:32;16.35;;;9.18;;
81834;SDS011;71272;52.166;4.498;2023-08-24T03:08:25;18.02;;;9.60;;
81834;SDS011;71272;52.166;4.498;2023-08-24T03:10:51;18.02;;;10.02;;
81834;SDS011;71272;52.166;4.498;2023-08-24T03:13:17;20.00;;;10.07;;
81834;SDS011;71272;52.166;4.498;2023-08-24T03:15:42;15.82;;;9.13;;
81834;SDS011;71272;52.166;4.498;2023-08-24T03:18:09;17.20;;;8.93;;
81834;SDS011;71272;52.166;4.498;2023-08-24T03:20:37;19.73;;;10.05;;
81834;SDS011;71272;52.166;4.498;2023-08-24T03:23:02;15.07;;;8.25;;
81834;SDS011;71272;52.166;4.498;2023-08-24T03:25:28;15.35;;;8.15;;
81834;SDS011;71272;52.166;4.498;2023-08-24T03:27:53;15.70;;;8.88;;
81834;SDS011;71272;52.166;4.498;2023-08-24T03:30:20;13.57;;;8.07;;
81834;SDS011;71272;52.166;4.498;2023-08-24T03:32:48;14.65;;;8.30;;
81834;SDS011;71272;52.166;4.498;2023-08-24T03:35:13;17.98;;;8.77;;
81834;SDS011;71272;52.166;4.498;2023-08-24T03:37:40;17.65;;;9.38;;
81834;SDS011;71272;52.166;4.498;2023-08-24T03:40:05;16.08;;;8.25;;
81834;SDS011;71272;52.166;4.498;2023-08-24T03:42:31;14.27;;;9.05;;
81834;SDS011;71272;52.166;4.498;2023-08-24T03:44:58;18.88;;;9.30;;
81834;SDS011;71272;52.166;4.498;2023-08-24T03:47:24;19.98;;;9.25;;
81834;SDS011;71272;52.166;4.498;2023-08-24T03:49:50;15.10;;;9.27;;
81834;SDS011;71272;52.166;4.498;2023-08-24T03:52:17;17.52;;;8.95;;
81834;SDS011;71272;52.166;4.498;2023-08-24T03:54:45;15.15;;;9.93;;
81834;SDS011;71272;52.166;4.498;2023-08-24T03:57:11;17.33;;;10.25;;
81834;SDS011;71272;52.166;4.498;2023-08-24T03:59:36;13.30;;;9.18;;
81834;SDS011;71272;52.166;4.498;2023-08-24T04:02:02;16.47;;;9.10;;
81834;SDS011;71272;52.166;4.498;2023-08-24T04:04:28;16.85;;;9.02;;
81834;SDS011;71272;52.166;4.498;2023-08-24T04:06:55;19.67;;;10.43;;
81834;SDS011;71272;52.166;4.498;2023-08-24T04:09:20;13.10;;;9.20;;
81834;SDS011;71272;52.166;4.498;2023-08-24T04:11:46;16.35;;;10.00;;
81834;SDS011;71272;52.166;4.498;2023-08-24T04:14:11;17.70;;;10.43;;
81834;SDS011;71272;52.166;4.498;2023-08-24T04:16:36;17.77;;;9.87;;
81834;SDS011;71272;52.166;4.498;2023-08-24T04:19:02;17.92;;;9.77;;
81834;SDS011;71272;52.166;4.498;2023-08-24T04:21:30;14.63;;;9.98;;
81834;SDS011;71272;52.166;4.498;2023-08-24T04:23:56;15.48;;;10.65;;
81834;SDS011;71272;52.166;4.498;2023-08-24T04:26:21;15.27;;;10.60;;
81834;SDS011;71272;52.166;4.498;2023-08-24T04:28:47;17.95;;;10.90;;
81834;SDS011;71272;52.166;4.498;2023-08-24T04:31:12;20.02;;;10.30;;
81834;SDS011;71272;52.166;4.498;2023-08-24T04:33:38;16.52;;;9.50;;
81834;SDS011;71272;52.166;4.498;2023-08-24T04:36:04;15.45;;;10.70;;
81834;SDS011;71272;52.166;4.498;2023-08-24T04:41:52;15.60;;;10.23;;
81834;SDS011;71272;52.166;4.498;2023-08-24T04:44:19;21.45;;;10.35;;
81834;SDS011;71272;52.166;4.498;2023-08-24T04:46:44;20.40;;;9.70;;
81834;SDS011;71272;52.166;4.498;2023-08-24T04:49:10;15.20;;;9.23;;
81834;SDS011;71272;52.166;4.498;2023-08-24T04:51:35;16.40;;;9.20;;
81834;SDS011;71272;52.166;4.498;2023-08-24T04:54:03;19.65;;;9.23;;
81834;SDS011;71272;52.166;4.498;2023-08-24T04:56:28;17.85;;;11.60;;
81834;SDS011;71272;52.166;4.498;2023-08-24T04:58:54;19.35;;;10.45;;
81834;SDS011;71272;52.166;4.498;2023-08-24T05:01:22;15.30;;;10.40;;
81834;SDS011;71272;52.166;4.498;2023-08-24T05:03:54;18.52;;;10.02;;
81834;SDS011;71272;52.166;4.498;2023-08-24T05:06:20;20.75;;;10.35;;
81834;SDS011;71272;52.166;4.498;2023-08-24T05:08:47;15.65;;;9.55;;
81834;SDS011;71272;52.166;4.498;2023-08-24T05:11:13;17.08;;;10.32;;
81834;SDS011;71272;52.166;4.498;2023-08-24T05:13:41;15.13;;;10.40;;
81834;SDS011;71272;52.166;4.498;2023-08-24T05:16:06;20.40;;;10.95;;
81834;SDS011;71272;52.166;4.498;2023-08-24T05:18:33;15.50;;;9.18;;
81834;SDS011;71272;52.166;4.498;2023-08-24T05:21:01;16.17;;;8.77;;
81834;SDS011;71272;52.166;4.498;2023-08-24T05:23:28;16.25;;;9.75;;
81834;SDS011;71272;52.166;4.498;2023-08-24T05:25:56;19.08;;;10.18;;
81834;SDS011;71272;52.166;4.498;2023-08-24T05:28:22;16.83;;;9.98;;
81834;SDS011;71272;52.166;4.498;2023-08-24T05:30:53;18.13;;;10.10;;
81834;SDS011;71272;52.166;4.498;2023-08-24T05:33:19;18.42;;;10.20;;
81834;SDS011;71272;52.166;4.498;2023-08-24T05:35:45;18.45;;;10.30;;
81834;SDS011;71272;52.166;4.498;2023-08-24T05:38:11;15.95;;;9.55;;
81834;SDS011;71272;52.166;4.498;2023-08-24T05:40:38;17.45;;;10.55;;
81834;SDS011;71272;52.166;4.498;2023-08-24T05:43:04;17.52;;;10.43;;
81834;SDS011;71272;52.166;4.498;2023-08-24T05:45:29;15.75;;;9.38;;
81834;SDS011;71272;52.166;4.498;2023-08-24T05:47:55;14.60;;;9.55;;
81834;SDS011;71272;52.166;4.498;2023-08-24T05:50:20;16.42;;;9.75;;
81834;SDS011;71272;52.166;4.498;2023-08-24T05:52:46;19.83;;;9.77;;
81834;SDS011;71272;52.166;4.498;2023-08-24T05:55:11;15.68;;;10.68;;
81834;SDS011;71272;52.166;4.498;2023-08-24T05:57:37;15.60;;;10.30;;
81834;SDS011;71272;52.166;4.498;2023-08-24T06:00:03;16.33;;;10.10;;
81834;SDS011;71272;52.166;4.498;2023-08-24T06:02:36;18.80;;;10.85;;
81834;SDS011;71272;52.166;4.498;2023-08-24T06:05:02;16.48;;;10.75;;
81834;SDS011;71272;52.166;4.498;2023-08-24T06:07:29;18.67;;;9.18;;
81834;SDS011;71272;52.166;4.498;2023-08-24T06:09:56;15.88;;;10.05;;
81834;SDS011;71272;52.166;4.498;2023-08-24T06:12:21;21.13;;;9.93;;
81834;SDS011;71272;52.166;4.498;2023-08-24T06:14:47;16.92;;;9.82;;
81834;SDS011;71272;52.166;4.498;2023-08-24T06:17:12;15.20;;;9.95;;
81834;SDS011;71272;52.166;4.498;2023-08-24T06:19:38;19.00;;;9.40;;
81834;SDS011;71272;52.166;4.498;2023-08-24T06:22:03;14.60;;;8.77;;
81834;SDS011;71272;52.166;4.498;2023-08-24T06:24:29;15.65;;;9.68;;
81834;SDS011;71272;52.166;4.498;2023-08-24T06:26:54;16.70;;;8.75;;
81834;SDS011;71272;52.166;4.498;2023-08-24T06:29:19;16.07;;;8.37;;
81834;SDS011;71272;52.166;4.498;2023-08-24T06:31:45;17.77;;;8.95;;
81834;SDS011;71272;52.166;4.498;2023-08-24T06:34:10;16.70;;;8.50;;
81834;SDS011;71272;52.166;4.498;2023-08-24T06:36:36;16.23;;;9.35;;
81834;SDS011;71272;52.166;4.498;2023-08-24T06:39:02;15.38;;;9.00;;
81834;SDS011;71272;52.166;4.498;2023-08-24T06:41:34;16.80;;;8.85;;
81834;SDS011;71272;52.166;4.498;2023-08-24T06:44:00;15.35;;;8.13;;
81834;SDS011;71272;52.166;4.498;2023-08-24T06:46:29;11.25;;;8.02;;
81834;SDS011;71272;52.166;4.498;2023-08-24T06:48:54;16.35;;;8.07;;
81834;SDS011;71272;52.166;4.498;2023-08-24T06:51:24;13.70;;;8.35;;
81834;SDS011;71272;52.166;4.498;2023-08-24T06:53:55;14.30;;;8.00;;
81834;SDS011;71272;52.166;4.498;2023-08-24T06:56:20;12.15;;;7.75;;
81834;SDS011;71272;52.166;4.498;2023-08-24T06:58:47;13.00;;;7.88;;
81834;SDS011;71272;52.166;4.498;2023-08-24T07:01:14;13.25;;;7.32;;
81834;SDS011;71272;52.166;4.498;2023-08-24T07:03:44;15.73;;;8.63;;
81834;SDS011;71272;52.166;4.498;2023-08-24T07:06:12;11.30;;;7.75;;
81834;SDS011;71272;52.166;4.498;2023-08-24T07:08:38;10.80;;;7.78;;
81834;SDS011;71272;52.166;4.498;2023-08-24T07:11:04;12.88;;;8.75;;
81834;SDS011;71272;52.166;4.498;2023-08-24T07:13:30;15.00;;;9.07;;
81834;SDS011;71272;52.166;4.498;2023-08-24T07:15:55;12.98;;;8.65;;
81834;SDS011;71272;52.166;4.498;2023-08-24T07:20:47;13.70;;;9.82;;
81834;SDS011;71272;52.166;4.498;2023-08-24T07:23:13;13.65;;;9.20;;
81834;SDS011;71272;52.166;4.498;2023-08-24T07:25:38;15.55;;;10.27;;
81834;SDS011;71272;52.166;4.498;2023-08-24T07:28:04;19.13;;;10.98;;
81834;SDS011;71272;52.166;4.498;2023-08-24T07:30:32;22.58;;;11.80;;
81834;SDS011;71272;52.166;4.498;2023-08-24T07:32:58;17.42;;;11.27;;
81834;SDS011;71272;52.166;4.498;2023-08-24T07:35:24;17.02;;;10.38;;
81834;SDS011;71272;52.166;4.498;2023-08-24T07:37:51;20.00;;;11.90;;
81834;SDS011;71272;52.166;4.498;2023-08-24T07:40:16;20.50;;;11.80;;
81834;SDS011;71272;52.166;4.498;2023-08-24T07:42:46;21.25;;;12.32;;
81834;SDS011;71272;52.166;4.498;2023-08-24T07:45:12;21.50;;;12.57;;
81834;SDS011;71272;52.166;4.498;2023-08-24T07:47:41;17.75;;;12.95;;
81834;SDS011;71272;52.166;4.498;2023-08-24T07:50:07;18.73;;;12.10;;
81834;SDS011;71272;52.166;4.498;2023-08-24T07:52:33;19.92;;;13.43;;
81834;SDS011;71272;52.166;4.498;2023-08-24T07:55:00;21.02;;;13.55;;
81834;SDS011;71272;52.166;4.498;2023-08-24T07:57:29;20.17;;;12.77;;
81834;SDS011;71272;52.166;4.498;2023-08-24T07:59:54;18.30;;;13.73;;
81834;SDS011;71272;52.166;4.498;2023-08-24T08:02:20;19.08;;;11.80;;
81834;SDS011;71272;52.166;4.498;2023-08-24T08:04:45;19.05;;;12.00;;
81834;SDS011;71272;52.166;4.498;2023-08-24T08:07:11;19.25;;;12.55;;
81834;SDS011;71272;52.166;4.498;2023-08-24T08:09:36;21.70;;;13.70;;
81834;SDS011;71272;52.166;4.498;2023-08-24T08:12:02;24.90;;;12.25;;
81834;SDS011;71272;52.166;4.498;2023-08-24T08:14:28;20.40;;;13.52;;
81834;SDS011;71272;52.166;4.498;2023-08-24T08:16:54;18.50;;;14.52;;
81834;SDS011;71272;52.166;4.498;2023-08-24T08:19:20;21.58;;;13.52;;
81834;SDS011;71272;52.166;4.498;2023-08-24T08:21:46;19.63;;;13.05;;
81834;SDS011;71272;52.166;4.498;2023-08-24T08:24:15;19.23;;;12.35;;
81834;SDS011;71272;52.166;4.498;2023-08-24T08:26:40;16.90;;;12.93;;
81834;SDS011;71272;52.166;4.498;2023-08-24T08:29:06;17.33;;;12.73;;
81834;SDS011;71272;52.166;4.498;2023-08-24T08:31:31;19.65;;;12.93;;
81834;SDS011;71272;52.166;4.498;2023-08-24T08:33:56;19.07;;;13.17;;
81834;SDS011;71272;52.166;4.498;2023-08-24T08:36:22;23.17;;;12.68;;
81834;SDS011;71272;52.166;4.498;2023-08-24T08:38:48;19.15;;;11.88;;
81834;SDS011;71272;52.166;4.498;2023-08-24T08:41:14;16.95;;;11.93;;
81834;SDS011;71272;52.166;4.498;2023-08-24T08:43:42;18.23;;;12.15;;
81834;SDS011;71272;52.166;4.498;2023-08-24T08:46:07;15.98;;;12.77;;
81834;SDS011;71272;52.166;4.498;2023-08-24T08:48:33;16.75;;;12.35;;
81834;SDS011;71272;52.166;4.498;2023-08-24T08:51:02;21.50;;;11.43;;
81834;SDS011;71272;52.166;4.498;2023-08-24T08:53:28;18.90;;;12.73;;
81834;SDS011;71272;52.166;4.498;2023-08-24T08:55:54;23.10;;;11.65;;
81834;SDS011;71272;52.166;4.498;2023-08-24T08:58:20;17.23;;;11.45;;
81834;SDS011;71272;52.166;4.498;2023-08-24T09:00:46;18.88;;;12.00;;
81834;SDS011;71272;52.166;4.498;2023-08-24T09:03:16;18.38;;;11.88;;
81834;SDS011;71272;52.166;4.498;2023-08-24T09:05:43;20.13;;;11.57;;
81834;SDS011;71272;52.166;4.498;2023-08-24T09:08:12;18.65;;;12.40;;
81834;SDS011;71272;52.166;4.498;2023-08-24T09:10:41;19.17;;;12.20;;
81834;SDS011;71272;52.166;4.498;2023-08-24T09:13:06;20.67;;;12.57;;
81834;SDS011;71272;52.166;4.498;2023-08-24T09:15:34;20.88;;;11.82;;
81834;SDS011;71272;52.166;4.498;2023-08-24T09:18:02;19.70;;;12.70;;
81834;SDS011;71272;52.166;4.498;2023-08-24T09:20:28;20.52;;;12.80;;
81834;SDS011;71272;52.166;4.498;2023-08-24T09:22:54;20.88;;;12.57;;
81834;SDS011;71272;52.166;4.498;2023-08-24T09:25:22;18.42;;;11.93;;
81834;SDS011;71272;52.166;4.498;2023-08-24T09:27:57;20.30;;;11.80;;
81834;SDS011;71272;52.166;4.498;2023-08-24T09:30:30;16.25;;;11.95;;
81834;SDS011;71272;52.166;4.498;2023-08-24T09:33:09;14.55;;;11.63;;
81834;SDS011;71272;52.166;4.498;2023-08-24T09:35:35;22.00;;;13.25;;
81834;SDS011;71272;52.166;4.498;2023-08-24T09:38:17;20.05;;;12.40;;
81834;SDS011;71272;52.166;4.498;2023-08-24T09:40:44;27.42;;;12.98;;
81834;SDS011;71272;52.166;4.498;2023-08-24T09:43:16;17.73;;;11.48;;
81834;SDS011;71272;52.166;4.498;2023-08-24T09:45:52;20.83;;;13.20;;
81834;SDS011;71272;52.166;4.498;2023-08-24T09:48:19;21.15;;;12.52;;
81834;SDS011;71272;52.166;4.498;2023-08-24T09:53:24;19.02;;;12.93;;
81834;SDS011;71272;52.166;4.498;2023-08-24T09:58:23;23.73;;;13.43;;
81834;SDS011;71272;52.166;4.498;2023-08-24T10:00:49;17.42;;;13.05;;
81834;SDS011;71272;52.166;4.498;2023-08-24T10:03:16;19.85;;;13.07;;
81834;SDS011;71272;52.166;4.498;2023-08-24T10:05:47;22.77;;;14.32;;
81834;SDS011;71272;52.166;4.498;2023-08-24T10:08:29;19.17;;;13.00;;
81834;SDS011;71272;52.166;4.498;2023-08-24T10:10:57;20.10;;;13.68;;
81834;SDS011;71272;52.166;4.498;2023-08-24T10:16:05;17.90;;;13.23;;
81834;SDS011;71272;52.166;4.498;2023-08-24T10:18:32;21.85;;;13.60;;
81834;SDS011;71272;52.166;4.498;2023-08-24T10:20:58;20.30;;;13.25;;
81834;SDS011;71272;52.166;4.498;2023-08-24T10:23:25;21.48;;;13.93;;
81834;SDS011;71272;52.166;4.498;2023-08-24T10:25:54;18.83;;;13.73;;
81834;SDS011;71272;52.166;4.498;2023-08-24T10:28:20;20.75;;;15.00;;
81834;SDS011;71272;52.166;4.498;2023-08-24T10:30:48;21.02;;;13.27;;
81834;SDS011;71272;52.166;4.498;2023-08-24T10:33:18;16.90;;;12.77;;
81834;SDS011;71272;52.166;4.498;2023-08-24T10:35:46;19.63;;;12.27;;
81834;SDS011;71272;52.166;4.498;2023-08-24T10:38:30;24.02;;;14.30;;
81834;SDS011;71272;52.166;4.498;2023-08-24T10:41:02;19.50;;;11.27;;
81834;SDS011;71272;52.166;4.498;2023-08-24T10:43:38;16.55;;;11.07;;
81834;SDS011;71272;52.166;4.498;2023-08-24T10:46:05;14.55;;;10.07;;
81834;SDS011;71272;52.166;4.498;2023-08-24T10:53:41;17.92;;;10.57;;
81834;SDS011;71272;52.166;4.498;2023-08-24T10:59:17;14.68;;;8.60;;
81834;SDS011;71272;52.166;4.498;2023-08-24T11:01:55;12.07;;;8.55;;
81834;SDS011;71272;52.166;4.498;2023-08-24T11:04:24;14.07;;;8.25;;
81834;SDS011;71272;52.166;4.498;2023-08-24T11:06:57;15.27;;;9.25;;
81834;SDS011;71272;52.166;4.498;2023-08-24T11:09:45;15.73;;;10.70;;
81834;SDS011;71272;52.166;4.498;2023-08-24T11:12:12;14.52;;;10.95;;
81834;SDS011;71272;52.166;4.498;2023-08-24T11:14:52;19.17;;;11.32;;
81834;SDS011;71272;52.166;4.498;2023-08-24T11:17:23;16.77;;;11.60;;
81834;SDS011;71272;52.166;4.498;2023-08-24T11:19:57;18.20;;;12.23;;
81834;SDS011;71272;52.166;4.498;2023-08-24T11:22:22;19.92;;;11.43;;
81834;SDS011;71272;52.166;4.498;2023-08-24T11:24:50;16.45;;;11.68;;
81834;SDS011;71272;52.166;4.498;2023-08-24T11:27:15;19.15;;;12.50;;
81834;SDS011;71272;52.166;4.498;2023-08-24T11:29:41;22.63;;;12.82;;
81834;SDS011;71272;52.166;4.498;2023-08-24T11:32:10;22.80;;;14.80;;
81834;SDS011;71272;52.166;4.498;2023-08-24T11:34:35;22.88;;;14.18;;
81834;SDS011;71272;52.166;4.498;2023-08-24T11:37:02;21.85;;;13.68;;
81834;SDS011;71272;52.166;4.498;2023-08-24T11:39:30;21.10;;;14.80;;
81834;SDS011;71272;52.166;4.498;2023-08-24T11:42:05;21.15;;;13.63;;
81834;SDS011;71272;52.166;4.498;2023-08-24T11:47:24;23.80;;;14.07;;
81834;SDS011;71272;52.166;4.498;2023-08-24T11:49:49;24.85;;;14.35;;
81834;SDS011;71272;52.166;4.498;2023-08-24T11:52:17;20.67;;;14.77;;
81834;SDS011;71272;52.166;4.498;2023-08-24T11:54:42;19.75;;;14.43;;
81834;SDS011;71272;52.166;4.498;2023-08-24T11:57:08;20.98;;;15.48;;
81834;SDS011;71272;52.166;4.498;2023-08-24T11:59:39;23.40;;;15.10;;
81834;SDS011;71272;52.166;4.498;2023-08-24T12:02:05;19.65;;;14.25;;
81834;SDS011;71272;52.166;4.498;2023-08-24T12:04:40;20.58;;;14.25;;
81834;SDS011;71272;52.166;4.498;2023-08-24T12:07:13;25.83;;;15.00;;
81834;SDS011;71272;52.166;4.498;2023-08-24T12:09:39;26.15;;;14.32;;
81834;SDS011;71272;52.166;4.498;2023-08-24T12:12:05;20.25;;;14.25;;
81834;SDS011;71272;52.166;4.498;2023-08-24T12:14:48;20.92;;;14.80;;
81834;SDS011;71272;52.166;4.498;2023-08-24T12:17:16;19.23;;;13.98;;
81834;SDS011;71272;52.166;4.498;2023-08-24T12:19:44;22.02;;;13.88;;
81834;SDS011;71272;52.166;4.498;2023-08-24T12:22:19;17.98;;;12.93;;
81834;SDS011;71272;52.166;4.498;2023-08-24T12:24:45;17.60;;;13.02;;
81834;SDS011;71272;52.166;4.498;2023-08-24T12:27:20;18.38;;;13.32;;
81834;SDS011;71272;52.166;4.498;2023-08-24T12:29:51;18.60;;;12.57;;
81834;SDS011;71272;52.166;4.498;2023-08-24T12:32:17;19.50;;;12.65;;
81834;SDS011;71272;52.166;4.498;2023-08-24T12:34:48;20.13;;;13.45;;
81834;SDS011;71272;52.166;4.498;2023-08-24T12:37:16;19.05;;;12.60;;
81834;SDS011;71272;52.166;4.498;2023-08-24T12:39:44;21.30;;;12.63;;
81834;SDS011;71272;52.166;4.498;2023-08-24T12:42:10;17.80;;;13.23;;
81834;SDS011;71272;52.166;4.498;2023-08-24T12:44:36;20.35;;;14.20;;
81834;SDS011;71272;52.166;4.498;2023-08-24T12:47:04;18.17;;;13.80;;
81834;SDS011;71272;52.166;4.498;2023-08-24T12:51:56;20.80;;;15.00;;
81834;SDS011;71272;52.166;4.498;2023-08-24T12:54:21;21.85;;;16.38;;
81834;SDS011;71272;52.166;4.498;2023-08-24T12:56:47;22.83;;;16.48;;
81834;SDS011;71272;52.166;4.498;2023-08-24T12:59:12;23.40;;;16.95;;
81834;SDS011;71272;52.166;4.498;2023-08-24T13:01:41;21.73;;;14.63;;
81834;SDS011;71272;52.166;4.498;2023-08-24T13:04:07;22.60;;;15.43;;
81834;SDS011;71272;52.166;4.498;2023-08-24T13:06:38;20.33;;;15.07;;
81834;SDS011;71272;52.166;4.498;2023-08-24T13:09:04;23.65;;;14.77;;
81834;SDS011;71272;52.166;4.498;2023-08-24T13:11:31;19.95;;;14.20;;
81834;SDS011;71272;52.166;4.498;2023-08-24T13:13:57;19.55;;;14.25;;
81834;SDS011;71272;52.166;4.498;2023-08-24T13:16:23;20.52;;;15.27;;
81834;SDS011;71272;52.166;4.498;2023-08-24T13:18:48;17.48;;;14.27;;
81834;SDS011;71272;52.166;4.498;2023-08-24T13:21:14;20.17;;;13.70;;
81834;SDS011;71272;52.166;4.498;2023-08-24T13:23:39;19.73;;;13.52;;
81834;SDS011;71272;52.166;4.498;2023-08-24T13:26:04;20.13;;;15.30;;
81834;SDS011;71272;52.166;4.498;2023-08-24T13:28:30;21.75;;;14.25;;
81834;SDS011;71272;52.166;4.498;2023-08-24T13:30:55;19.27;;;15.30;;
81834;SDS011;71272;52.166;4.498;2023-08-24T13:33:23;21.20;;;15.32;;
81834;SDS011;71272;52.166;4.498;2023-08-24T13:35:56;24.30;;;16.50;;
81834;SDS011;71272;52.166;4.498;2023-08-24T13:38:21;23.38;;;16.42;;
81834;SDS011;71272;52.166;4.498;2023-08-24T13:40:47;24.75;;;16.17;;
81834;SDS011;71272;52.166;4.498;2023-08-24T13:43:22;22.17;;;17.10;;
81834;SDS011;71272;52.166;4.498;2023-08-24T13:45:47;23.52;;;16.75;;
81834;SDS011;71272;52.166;4.498;2023-08-24T13:48:13;26.58;;;16.88;;
81834;SDS011;71272;52.166;4.498;2023-08-24T13:50:40;27.23;;;17.55;;
81834;SDS011;71272;52.166;4.498;2023-08-24T13:53:07;23.50;;;16.38;;
81834;SDS011;71272;52.166;4.498;2023-08-24T13:55:32;21.80;;;17.48;;
81834;SDS011;71272;52.166;4.498;2023-08-24T13:57:58;23.05;;;17.15;;
81834;SDS011;71272;52.166;4.498;2023-08-24T14:00:23;23.30;;;18.05;;
81834;SDS011;71272;52.166;4.498;2023-08-24T14:02:50;23.17;;;17.50;;
81834;SDS011;71272;52.166;4.498;2023-08-24T14:05:15;24.73;;;18.38;;
81834;SDS011;71272;52.166;4.498;2023-08-24T14:07:41;27.63;;;20.83;;
81834;SDS011;71272;52.166;4.498;2023-08-24T14:10:06;25.93;;;17.50;;
81834;SDS011;71272;52.166;4.498;2023-08-24T14:12:33;22.20;;;18.13;;
81834;SDS011;71272;52.166;4.498;2023-08-24T14:14:58;24.90;;;18.77;;
81834;SDS011;71272;52.166;4.498;2023-08-24T14:17:24;24.40;;;17.85;;
81834;SDS011;71272;52.166;4.498;2023-08-24T14:19:49;26.13;;;18.95;;
81834;SDS011;71272;52.166;4.498;2023-08-24T14:22:14;21.90;;;18.53;;
81834;SDS011;71272;52.166;4.498;2023-08-24T14:24:42;27.58;;;21.30;;
81834;SDS011;71272;52.166;4.498;2023-08-24T14:27:09;26.88;;;21.95;;
81834;SDS011;71272;52.166;4.498;2023-08-24T14:29:40;29.48;;;21.90;;
81834;SDS011;71272;52.166;4.498;2023-08-24T14:32:11;25.70;;;19.63;;
81834;SDS011;71272;52.166;4.498;2023-08-24T14:34:40;29.85;;;20.63;;
81834;SDS011;71272;52.166;4.498;2023-08-24T14:37:05;28.45;;;22.25;;
81834;SDS011;71272;52.166;4.498;2023-08-24T14:39:33;25.98;;;22.88;;
81834;SDS011;71272;52.166;4.498;2023-08-24T14:41:58;30.63;;;22.95;;
81834;SDS011;71272;52.166;4.498;2023-08-24T14:46:59;24.92;;;21.58;;
81834;SDS011;71272;52.166;4.498;2023-08-24T14:49:27;27.80;;;21.80;;
81834;SDS011;71272;52.166;4.498;2023-08-24T14:51:53;31.95;;;23.55;;
81834;SDS011;71272;52.166;4.498;2023-08-24T14:54:18;28.33;;;21.08;;
81834;SDS011;71272;52.166;4.498;2023-08-24T14:56:44;26.17;;;21.08;;
81834;SDS011;71272;52.166;4.498;2023-08-24T14:59:09;25.33;;;19.50;;
81834;SDS011;71272;52.166;4.498;2023-08-24T15:01:35;26.52;;;21.20;;
81834;SDS011;71272;52.166;4.498;2023-08-24T15:04:00;26.05;;;19.83;;
81834;SDS011;71272;52.166;4.498;2023-08-24T15:06:26;26.55;;;18.77;;
81834;SDS011;71272;52.166;4.498;2023-08-24T15:08:51;28.92;;;17.80;;
81834;SDS011;71272;52.166;4.498;2023-08-24T15:11:17;21.63;;;14.63;;